sensor_id;sensor_type;location;lat;lon;timestamp;pressure;altitude;pressure_sealevel;temperature;humidity
40372;BME280;28564;53.346;-6.554;2023-02-13T00:01:01;102336.73;;;7.05;45.70
40372;BME280;28564;53.346;-6.554;2023-02-13T00:03:28;102338.38;;;7.00;45.65
40372;BME280;28564;53.346;-6.554;2023-02-13T00:05:56;102342.18;;;6.88;45.70
40372;BME280;28564;53.346;-6.554;2023-02-13T00:08:23;102337.96;;;6.79;45.88
40372;BME280;28564;53.346;-6.554;2023-02-13T00:10:50;102336.07;;;6.78;45.99
40372;BME280;28564;53.346;-6.554;2023-02-13T00:13:17;102342.33;;;7.04;45.96
40372;BME280;28564;53.346;-6.554;2023-02-13T00:15:44;102338.57;;;6.65;45.83
40372;BME280;28564;53.346;-6.554;2023-02-13T00:18:11;102342.10;;;6.57;46.20
40372;BME280;28564;53.346;-6.554;2023-02-13T00:20:39;102336.51;;;6.53;46.17
40372;BME280;28564;53.346;-6.554;2023-02-13T00:23:06;102335.21;;;6.48;46.09
40372;BME280;28564;53.346;-6.554;2023-02-13T00:25:33;102332.66;;;6.68;46.21
40372;BME280;28564;53.346;-6.554;2023-02-13T00:28:00;102337.00;;;6.90;46.19
40372;BME280;28564;53.346;-6.554;2023-02-13T00:30:28;102342.07;;;6.62;45.89
40372;BME280;28564;53.346;-6.554;2023-02-13T00:32:55;102347.01;;;6.44;45.71
40372;BME280;28564;53.346;-6.554;2023-02-13T00:35:22;102346.21;;;6.33;45.68
40372;BME280;28564;53.346;-6.554;2023-02-13T00:37:50;102346.85;;;6.37;45.44
40372;BME280;28564;53.346;-6.554;2023-02-13T00:40:17;102340.92;;;6.19;45.75
40372;BME280;28564;53.346;-6.554;2023-02-13T00:42:45;102337.72;;;6.18;46.04
40372;BME280;28564;53.346;-6.554;2023-02-13T00:45:12;102336.79;;;6.24;46.11
40372;BME280;28564;53.346;-6.554;2023-02-13T00:47:40;102332.11;;;6.27;46.04
40372;BME280;28564;53.346;-6.554;2023-02-13T00:50:08;102332.38;;;6.31;46.03
40372;BME280;28564;53.346;-6.554;2023-02-13T00:52:35;102335.85;;;6.20;45.92
40372;BME280;28564;53.346;-6.554;2023-02-13T00:55:02;102330.44;;;6.13;45.60
40372;BME280;28564;53.346;-6.554;2023-02-13T00:57:30;102330.24;;;6.30;45.39
40372;BME280;28564;53.346;-6.554;2023-02-13T00:59:57;102333.79;;;6.46;45.34
40372;BME280;28564;53.346;-6.554;2023-02-13T01:02:25;102332.34;;;6.61;45.20
40372;BME280;28564;53.346;-6.554;2023-02-13T01:04:52;102335.97;;;6.72;45.05
40372;BME280;28564;53.346;-6.554;2023-02-13T01:07:19;102329.99;;;6.79;44.94
40372;BME280;28564;53.346;-6.554;2023-02-13T01:09:46;102324.49;;;6.40;44.89
40372;BME280;28564;53.346;-6.554;2023-02-13T01:12:14;102325.22;;;6.90;44.83
40372;BME280;28564;53.346;-6.554;2023-02-13T01:14:41;102326.01;;;6.92;44.71
40372;BME280;28564;53.346;-6.554;2023-02-13T01:17:08;102332.01;;;6.62;44.14
40372;BME280;28564;53.346;-6.554;2023-02-13T01:19:36;102324.65;;;6.31;43.94
40372;BME280;28564;53.346;-6.554;2023-02-13T01:22:03;102326.90;;;6.36;44.38
40372;BME280;28564;53.346;-6.554;2023-02-13T01:24:31;102327.65;;;6.13;44.55
40372;BME280;28564;53.346;-6.554;2023-02-13T01:26:58;102327.58;;;6.39;44.58
40372;BME280;28564;53.346;-6.554;2023-02-13T01:29:26;102326.56;;;6.40;44.62
40372;BME280;28564;53.346;-6.554;2023-02-13T01:31:53;102324.97;;;6.19;44.66
40372;BME280;28564;53.346;-6.554;2023-02-13T01:34:20;102323.23;;;6.42;44.68
40372;BME280;28564;53.346;-6.554;2023-02-13T01:36:47;102317.94;;;6.23;44.75
40372;BME280;28564;53.346;-6.554;2023-02-13T01:39:15;102313.91;;;6.36;44.81
40372;BME280;28564;53.346;-6.554;2023-02-13T01:41:43;102313.03;;;6.55;44.78
40372;BME280;28564;53.346;-6.554;2023-02-13T01:44:47;102311.21;;;6.88;44.32
40372;BME280;28564;53.346;-6.554;2023-02-13T01:47:18;102320.44;;;6.78;44.01
40372;BME280;28564;53.346;-6.554;2023-02-13T01:49:46;102310.44;;;6.41;44.00
40372;BME280;28564;53.346;-6.554;2023-02-13T01:52:15;102309.63;;;6.46;44.39
40372;BME280;28564;53.346;-6.554;2023-02-13T01:54:43;102313.71;;;6.29;44.82
40372;BME280;28564;53.346;-6.554;2023-02-13T01:57:15;102307.58;;;6.40;45.18
40372;BME280;28564;53.346;-6.554;2023-02-13T01:59:48;102309.32;;;5.99;45.62
40372;BME280;28564;53.346;-6.554;2023-02-13T02:02:17;102306.48;;;6.61;45.71
40372;BME280;28564;53.346;-6.554;2023-02-13T02:04:46;102302.47;;;6.30;45.65
40372;BME280;28564;53.346;-6.554;2023-02-13T02:07:19;102302.50;;;6.77;45.61
40372;BME280;28564;53.346;-6.554;2023-02-13T02:09:48;102302.13;;;6.33;45.73
40372;BME280;28564;53.346;-6.554;2023-02-13T02:12:22;102302.78;;;6.43;45.81
40372;BME280;28564;53.346;-6.554;2023-02-13T02:14:52;102291.35;;;6.56;45.89
40372;BME280;28564;53.346;-6.554;2023-02-13T02:17:21;102300.87;;;6.73;46.03
40372;BME280;28564;53.346;-6.554;2023-02-13T02:19:57;102295.79;;;7.03;45.86
40372;BME280;28564;53.346;-6.554;2023-02-13T02:22:54;102291.70;;;6.75;45.83
40372;BME280;28564;53.346;-6.554;2023-02-13T02:25:45;102298.01;;;6.89;46.35
40372;BME280;28564;53.346;-6.554;2023-02-13T02:28:30;102290.87;;;6.92;46.22
40372;BME280;28564;53.346;-6.554;2023-02-13T02:31:17;102278.69;;;7.02;46.21
40372;BME280;28564;53.346;-6.554;2023-02-13T02:34:02;102280.29;;;7.27;47.51
40372;BME280;28564;53.346;-6.554;2023-02-13T02:36:45;102279.11;;;7.62;47.62
40372;BME280;28564;53.346;-6.554;2023-02-13T02:39:25;102271.31;;;7.89;47.52
40372;BME280;28564;53.346;-6.554;2023-02-13T02:42:00;102281.54;;;8.14;47.38
40372;BME280;28564;53.346;-6.554;2023-02-13T02:44:35;102282.00;;;8.10;47.31
40372;BME280;28564;53.346;-6.554;2023-02-13T02:47:14;102282.96;;;8.49;47.24
40372;BME280;28564;53.346;-6.554;2023-02-13T02:49:50;102279.22;;;8.46;47.42
40372;BME280;28564;53.346;-6.554;2023-02-13T02:52:27;102277.23;;;8.62;47.72
40372;BME280;28564;53.346;-6.554;2023-02-13T02:55:02;102270.10;;;8.70;47.66
40372;BME280;28564;53.346;-6.554;2023-02-13T02:57:33;102269.22;;;8.59;47.54
40372;BME280;28564;53.346;-6.554;2023-02-13T03:00:02;102271.34;;;8.72;47.31
40372;BME280;28564;53.346;-6.554;2023-02-13T03:02:30;102265.14;;;8.79;46.99
40372;BME280;28564;53.346;-6.554;2023-02-13T03:05:00;102272.33;;;8.60;46.76
40372;BME280;28564;53.346;-6.554;2023-02-13T03:07:28;102268.33;;;8.90;46.63
40372;BME280;28564;53.346;-6.554;2023-02-13T03:09:57;102265.99;;;8.44;46.49
40372;BME280;28564;53.346;-6.554;2023-02-13T03:12:32;102261.08;;;8.94;46.43
40372;BME280;28564;53.346;-6.554;2023-02-13T03:15:02;102255.95;;;8.72;46.58
40372;BME280;28564;53.346;-6.554;2023-02-13T03:17:30;102259.59;;;8.82;46.95
40372;BME280;28564;53.346;-6.554;2023-02-13T03:20:07;102244.41;;;9.19;46.79
40372;BME280;28564;53.346;-6.554;2023-02-13T03:22:45;102245.71;;;9.03;46.60
40372;BME280;28564;53.346;-6.554;2023-02-13T03:25:27;102244.27;;;8.86;46.30
40372;BME280;28564;53.346;-6.554;2023-02-13T03:27:57;102245.16;;;8.87;46.17
40372;BME280;28564;53.346;-6.554;2023-02-13T03:30:34;102246.94;;;8.87;46.07
40372;BME280;28564;53.346;-6.554;2023-02-13T03:33:14;102249.83;;;9.06;46.00
40372;BME280;28564;53.346;-6.554;2023-02-13T03:35:49;102250.07;;;9.00;46.17
40372;BME280;28564;53.346;-6.554;2023-02-13T03:38:22;102249.99;;;8.84;46.25
40372;BME280;28564;53.346;-6.554;2023-02-13T03:40:55;102246.13;;;9.12;46.34
40372;BME280;28564;53.346;-6.554;2023-02-13T03:43:26;102244.10;;;8.97;46.41
40372;BME280;28564;53.346;-6.554;2023-02-13T03:45:56;102242.98;;;9.08;46.29
40372;BME280;28564;53.346;-6.554;2023-02-13T03:48:26;102240.66;;;9.17;46.18
40372;BME280;28564;53.346;-6.554;2023-02-13T03:50:56;102239.16;;;9.23;46.14
40372;BME280;28564;53.346;-6.554;2023-02-13T03:53:27;102235.37;;;9.23;46.14
40372;BME280;28564;53.346;-6.554;2023-02-13T03:55:57;102232.08;;;9.29;46.48
40372;BME280;28564;53.346;-6.554;2023-02-13T03:58:29;102228.91;;;9.36;46.78
40372;BME280;28564;53.346;-6.554;2023-02-13T04:01:01;102227.85;;;9.21;46.59
40372;BME280;28564;53.346;-6.554;2023-02-13T04:03:34;102228.92;;;9.13;46.20
40372;BME280;28564;53.346;-6.554;2023-02-13T04:06:06;102231.96;;;9.38;46.10
40372;BME280;28564;53.346;-6.554;2023-02-13T04:08:35;102230.63;;;9.38;46.12
40372;BME280;28564;53.346;-6.554;2023-02-13T04:11:07;102225.85;;;9.21;46.08
40372;BME280;28564;53.346;-6.554;2023-02-13T04:13:41;102227.45;;;9.44;45.88
40372;BME280;28564;53.346;-6.554;2023-02-13T04:16:11;102227.57;;;9.25;45.96
40372;BME280;28564;53.346;-6.554;2023-02-13T04:18:40;102226.63;;;9.51;46.13
40372;BME280;28564;53.346;-6.554;2023-02-13T04:21:08;102227.56;;;9.38;46.15
40372;BME280;28564;53.346;-6.554;2023-02-13T04:23:35;102228.09;;;9.48;46.16
40372;BME280;28564;53.346;-6.554;2023-02-13T04:26:05;102220.65;;;9.62;45.98
40372;BME280;28564;53.346;-6.554;2023-02-13T04:28:33;102213.94;;;9.71;45.84
40372;BME280;28564;53.346;-6.554;2023-02-13T04:31:00;102214.87;;;9.78;45.74
40372;BME280;28564;53.346;-6.554;2023-02-13T04:33:27;102210.46;;;9.81;45.66
40372;BME280;28564;53.346;-6.554;2023-02-13T04:35:54;102206.80;;;9.58;45.51
40372;BME280;28564;53.346;-6.554;2023-02-13T04:38:21;102208.12;;;9.73;45.49
40372;BME280;28564;53.346;-6.554;2023-02-13T04:40:49;102211.28;;;9.65;45.50
40372;BME280;28564;53.346;-6.554;2023-02-13T04:43:17;102207.57;;;9.54;45.52
40372;BME280;28564;53.346;-6.554;2023-02-13T04:45:47;102207.09;;;9.41;45.56
40372;BME280;28564;53.346;-6.554;2023-02-13T04:48:14;102211.26;;;9.66;45.85
40372;BME280;28564;53.346;-6.554;2023-02-13T04:50:41;102212.16;;;9.37;46.16
40372;BME280;28564;53.346;-6.554;2023-02-13T04:53:09;102213.21;;;9.15;46.43
40372;BME280;28564;53.346;-6.554;2023-02-13T04:55:36;102213.50;;;8.96;46.65
40372;BME280;28564;53.346;-6.554;2023-02-13T04:58:03;102215.64;;;9.03;46.90
40372;BME280;28564;53.346;-6.554;2023-02-13T05:00:31;102219.68;;;8.68;47.12
40372;BME280;28564;53.346;-6.554;2023-02-13T05:03:03;102218.34;;;8.77;47.25
40372;BME280;28564;53.346;-6.554;2023-02-13T05:05:31;102225.85;;;8.96;47.57
40372;BME280;28564;53.346;-6.554;2023-02-13T05:07:59;102220.77;;;8.94;47.81
40372;BME280;28564;53.346;-6.554;2023-02-13T05:10:26;102221.89;;;8.66;47.76
40372;BME280;28564;53.346;-6.554;2023-02-13T05:12:53;102223.41;;;8.83;47.59
40372;BME280;28564;53.346;-6.554;2023-02-13T05:15:20;102222.25;;;8.97;47.46
40372;BME280;28564;53.346;-6.554;2023-02-13T05:17:48;102217.61;;;9.12;47.33
40372;BME280;28564;53.346;-6.554;2023-02-13T05:20:16;102212.23;;;8.74;47.06
40372;BME280;28564;53.346;-6.554;2023-02-13T05:22:44;102210.75;;;8.99;46.73
40372;BME280;28564;53.346;-6.554;2023-02-13T05:25:12;102206.39;;;8.93;46.45
40372;BME280;28564;53.346;-6.554;2023-02-13T05:27:39;102210.81;;;9.09;46.25
40372;BME280;28564;53.346;-6.554;2023-02-13T05:30:07;102208.87;;;8.67;46.19
40372;BME280;28564;53.346;-6.554;2023-02-13T05:32:34;102211.36;;;8.80;46.23
40372;BME280;28564;53.346;-6.554;2023-02-13T05:35:02;102212.86;;;8.43;46.31
40372;BME280;28564;53.346;-6.554;2023-02-13T05:37:29;102213.54;;;8.34;46.37
40372;BME280;28564;53.346;-6.554;2023-02-13T05:39:56;102209.62;;;8.51;46.41
40372;BME280;28564;53.346;-6.554;2023-02-13T05:42:23;102209.28;;;8.16;46.38
40372;BME280;28564;53.346;-6.554;2023-02-13T05:44:51;102206.25;;;8.32;46.42
40372;BME280;28564;53.346;-6.554;2023-02-13T05:47:18;102206.44;;;8.35;46.50
40372;BME280;28564;53.346;-6.554;2023-02-13T05:49:45;102196.62;;;8.31;46.75
40372;BME280;28564;53.346;-6.554;2023-02-13T05:52:13;102197.63;;;8.03;47.09
40372;BME280;28564;53.346;-6.554;2023-02-13T05:54:40;102198.51;;;8.07;47.41
40372;BME280;28564;53.346;-6.554;2023-02-13T05:57:07;102195.82;;;7.73;47.76
40372;BME280;28564;53.346;-6.554;2023-02-13T05:59:35;102190.98;;;8.13;48.01
40372;BME280;28564;53.346;-6.554;2023-02-13T06:02:03;102191.32;;;7.85;48.01
40372;BME280;28564;53.346;-6.554;2023-02-13T06:04:30;102182.30;;;7.80;48.09
40372;BME280;28564;53.346;-6.554;2023-02-13T06:06:57;102187.98;;;7.76;48.09
40372;BME280;28564;53.346;-6.554;2023-02-13T06:09:25;102189.62;;;7.72;48.20
40372;BME280;28564;53.346;-6.554;2023-02-13T06:11:52;102180.25;;;7.92;48.26
40372;BME280;28564;53.346;-6.554;2023-02-13T06:14:19;102177.78;;;7.88;48.15
40372;BME280;28564;53.346;-6.554;2023-02-13T06:16:46;102181.00;;;7.62;48.14
40372;BME280;28564;53.346;-6.554;2023-02-13T06:19:13;102182.43;;;7.70;47.96
40372;BME280;28564;53.346;-6.554;2023-02-13T06:21:41;102180.70;;;7.14;48.08
40372;BME280;28564;53.346;-6.554;2023-02-13T06:24:08;102182.49;;;7.50;48.11
40372;BME280;28564;53.346;-6.554;2023-02-13T06:26:36;102190.45;;;7.43;48.12
40372;BME280;28564;53.346;-6.554;2023-02-13T06:29:03;102187.95;;;7.35;48.14
40372;BME280;28564;53.346;-6.554;2023-02-13T06:31:30;102185.95;;;7.08;48.09
40372;BME280;28564;53.346;-6.554;2023-02-13T06:33:57;102189.14;;;7.24;48.11
40372;BME280;28564;53.346;-6.554;2023-02-13T06:36:25;102185.64;;;7.16;48.16
40372;BME280;28564;53.346;-6.554;2023-02-13T06:38:52;102186.86;;;7.09;48.28
40372;BME280;28564;53.346;-6.554;2023-02-13T06:41:20;102187.60;;;7.05;48.47
40372;BME280;28564;53.346;-6.554;2023-02-13T06:43:47;102194.93;;;7.06;48.54
40372;BME280;28564;53.346;-6.554;2023-02-13T06:46:14;102190.07;;;7.09;48.32
40372;BME280;28564;53.346;-6.554;2023-02-13T06:48:42;102187.31;;;7.32;48.33
40372;BME280;28564;53.346;-6.554;2023-02-13T06:51:09;102186.55;;;6.99;48.33
40372;BME280;28564;53.346;-6.554;2023-02-13T06:53:37;102185.70;;;6.92;48.38
40372;BME280;28564;53.346;-6.554;2023-02-13T06:56:05;102187.87;;;6.87;48.46
40372;BME280;28564;53.346;-6.554;2023-02-13T06:58:32;102184.26;;;6.81;48.44
40372;BME280;28564;53.346;-6.554;2023-02-13T07:01:00;102178.92;;;7.02;48.45
40372;BME280;28564;53.346;-6.554;2023-02-13T07:03:27;102185.37;;;6.98;48.44
40372;BME280;28564;53.346;-6.554;2023-02-13T07:05:54;102180.00;;;6.91;48.44
40372;BME280;28564;53.346;-6.554;2023-02-13T07:08:22;102168.13;;;6.56;48.40
40372;BME280;28564;53.346;-6.554;2023-02-13T07:10:49;102169.49;;;6.76;48.52
40372;BME280;28564;53.346;-6.554;2023-02-13T07:13:16;102166.09;;;6.74;48.57
40372;BME280;28564;53.346;-6.554;2023-02-13T07:15:44;102163.13;;;6.71;48.65
40372;BME280;28564;53.346;-6.554;2023-02-13T07:18:11;102168.23;;;6.92;48.68
40372;BME280;28564;53.346;-6.554;2023-02-13T07:20:38;102166.47;;;6.39;48.61
40372;BME280;28564;53.346;-6.554;2023-02-13T07:23:06;102167.87;;;6.63;48.64
40372;BME280;28564;53.346;-6.554;2023-02-13T07:25:33;102170.69;;;6.55;48.62
40372;BME280;28564;53.346;-6.554;2023-02-13T07:28:02;102176.45;;;6.49;48.65
40372;BME280;28564;53.346;-6.554;2023-02-13T07:30:30;102173.93;;;6.66;48.60
40372;BME280;28564;53.346;-6.554;2023-02-13T07:32:59;102172.36;;;6.58;48.65
40372;BME280;28564;53.346;-6.554;2023-02-13T07:35:26;102173.22;;;6.51;48.95
40372;BME280;28564;53.346;-6.554;2023-02-13T07:37:53;102176.38;;;6.26;48.94
40372;BME280;28564;53.346;-6.554;2023-02-13T07:40:21;102182.59;;;6.44;48.83
40372;BME280;28564;53.346;-6.554;2023-02-13T07:42:48;102185.49;;;6.41;48.81
40372;BME280;28564;53.346;-6.554;2023-02-13T07:45:15;102182.81;;;6.39;48.81
40372;BME280;28564;53.346;-6.554;2023-02-13T07:47:43;102187.93;;;6.13;48.82
40372;BME280;28564;53.346;-6.554;2023-02-13T07:50:11;102194.72;;;6.10;48.92
40372;BME280;28564;53.346;-6.554;2023-02-13T07:52:39;102193.82;;;6.05;48.91
40372;BME280;28564;53.346;-6.554;2023-02-13T07:55:07;102193.78;;;6.23;48.95
40372;BME280;28564;53.346;-6.554;2023-02-13T07:57:34;102191.21;;;6.05;48.67
40372;BME280;28564;53.346;-6.554;2023-02-13T08:00:02;102196.90;;;5.83;48.41
40372;BME280;28564;53.346;-6.554;2023-02-13T08:02:30;102193.38;;;5.86;48.37
40372;BME280;28564;53.346;-6.554;2023-02-13T08:04:57;102194.04;;;5.93;48.36
40372;BME280;28564;53.346;-6.554;2023-02-13T08:07:24;102196.61;;;6.04;48.27
40372;BME280;28564;53.346;-6.554;2023-02-13T08:09:51;102191.62;;;6.12;48.19
40372;BME280;28564;53.346;-6.554;2023-02-13T08:12:18;102195.35;;;6.20;48.10
40372;BME280;28564;53.346;-6.554;2023-02-13T08:14:45;102201.26;;;6.28;48.00
40372;BME280;28564;53.346;-6.554;2023-02-13T08:17:12;102201.05;;;6.33;47.88
40372;BME280;28564;53.346;-6.554;2023-02-13T08:19:39;102194.12;;;6.37;47.77
40372;BME280;28564;53.346;-6.554;2023-02-13T08:22:07;102193.45;;;6.41;47.68
40372;BME280;28564;53.346;-6.554;2023-02-13T08:24:34;102194.62;;;6.43;47.50
40372;BME280;28564;53.346;-6.554;2023-02-13T08:27:02;102192.76;;;6.53;47.47
40372;BME280;28564;53.346;-6.554;2023-02-13T08:29:29;102196.81;;;6.56;47.48
40372;BME280;28564;53.346;-6.554;2023-02-13T08:31:56;102201.27;;;6.36;47.47
40372;BME280;28564;53.346;-6.554;2023-02-13T08:34:24;102207.71;;;6.56;47.40
40372;BME280;28564;53.346;-6.554;2023-02-13T08:36:55;102205.88;;;6.56;47.47
40372;BME280;28564;53.346;-6.554;2023-02-13T08:39:22;102213.61;;;6.34;47.42
40372;BME280;28564;53.346;-6.554;2023-02-13T08:41:49;102212.55;;;6.29;47.45
40372;BME280;28564;53.346;-6.554;2023-02-13T08:44:17;102207.77;;;6.53;47.66
40372;BME280;28564;53.346;-6.554;2023-02-13T08:46:44;102207.24;;;6.60;47.62
40372;BME280;28564;53.346;-6.554;2023-02-13T08:49:11;102212.08;;;6.55;47.80
40372;BME280;28564;53.346;-6.554;2023-02-13T08:51:38;102206.54;;;6.48;47.98
40372;BME280;28564;53.346;-6.554;2023-02-13T08:54:06;102208.32;;;6.89;48.26
40372;BME280;28564;53.346;-6.554;2023-02-13T08:56:33;102205.19;;;6.35;48.58
40372;BME280;28564;53.346;-6.554;2023-02-13T08:59:00;102212.01;;;6.36;48.92
40372;BME280;28564;53.346;-6.554;2023-02-13T09:01:28;102209.17;;;6.63;48.92
40372;BME280;28564;53.346;-6.554;2023-02-13T09:03:55;102208.02;;;6.38;49.25
40372;BME280;28564;53.346;-6.554;2023-02-13T09:06:21;102206.62;;;6.90;49.44
40372;BME280;28564;53.346;-6.554;2023-02-13T09:08:49;102213.44;;;6.45;49.50
40372;BME280;28564;53.346;-6.554;2023-02-13T09:11:16;102211.09;;;7.00;49.66
40372;BME280;28564;53.346;-6.554;2023-02-13T09:13:44;102205.13;;;6.90;49.80
40372;BME280;28564;53.346;-6.554;2023-02-13T09:16:11;102210.32;;;6.76;49.72
40372;BME280;28564;53.346;-6.554;2023-02-13T09:18:38;102208.12;;;7.15;49.89
40372;BME280;28564;53.346;-6.554;2023-02-13T09:21:08;102206.57;;;7.04;50.05
40372;BME280;28564;53.346;-6.554;2023-02-13T09:23:38;102205.38;;;7.20;50.06
40372;BME280;28564;53.346;-6.554;2023-02-13T09:26:09;102205.00;;;7.30;49.99
40372;BME280;28564;53.346;-6.554;2023-02-13T09:28:37;102205.77;;;7.41;50.01
40372;BME280;28564;53.346;-6.554;2023-02-13T09:31:06;102203.64;;;7.49;50.24
40372;BME280;28564;53.346;-6.554;2023-02-13T09:33:34;102201.61;;;7.58;50.41
40372;BME280;28564;53.346;-6.554;2023-02-13T09:36:04;102198.57;;;7.49;50.55
40372;BME280;28564;53.346;-6.554;2023-02-13T09:38:30;102202.91;;;7.84;50.42
40372;BME280;28564;53.346;-6.554;2023-02-13T09:41:00;102200.87;;;7.95;50.24
40372;BME280;28564;53.346;-6.554;2023-02-13T09:43:31;102196.02;;;8.02;49.96
40372;BME280;28564;53.346;-6.554;2023-02-13T09:46:06;102204.90;;;8.11;49.84
40372;BME280;28564;53.346;-6.554;2023-02-13T09:48:38;102205.78;;;7.77;49.85
40372;BME280;28564;53.346;-6.554;2023-02-13T09:51:08;102205.25;;;7.90;49.97
40372;BME280;28564;53.346;-6.554;2023-02-13T09:53:39;102199.68;;;8.02;49.84
40372;BME280;28564;53.346;-6.554;2023-02-13T09:56:12;102199.64;;;8.12;49.70
40372;BME280;28564;53.346;-6.554;2023-02-13T09:58:44;102209.96;;;8.68;49.64
40372;BME280;28564;53.346;-6.554;2023-02-13T10:04:13;102193.69;;;8.62;48.92
40372;BME280;28564;53.346;-6.554;2023-02-13T10:06:46;102194.64;;;8.91;48.87
40372;BME280;28564;53.346;-6.554;2023-02-13T10:09:26;102194.90;;;9.37;48.70
40372;BME280;28564;53.346;-6.554;2023-02-13T10:12:12;102193.62;;;9.43;48.17
40372;BME280;28564;53.346;-6.554;2023-02-13T10:14:51;102192.18;;;9.66;47.74
40372;BME280;28564;53.346;-6.554;2023-02-13T10:17:23;102191.46;;;9.61;47.63
40372;BME280;28564;53.346;-6.554;2023-02-13T10:19:56;102193.06;;;9.88;47.37
40372;BME280;28564;53.346;-6.554;2023-02-13T10:22:28;102191.58;;;10.14;47.00
40372;BME280;28564;53.346;-6.554;2023-02-13T10:25:00;102193.78;;;10.19;46.15
40372;BME280;28564;53.346;-6.554;2023-02-13T10:27:33;102192.84;;;10.57;45.59
40372;BME280;28564;53.346;-6.554;2023-02-13T10:30:05;102190.01;;;10.41;45.30
40372;BME280;28564;53.346;-6.554;2023-02-13T10:32:41;102193.06;;;10.46;45.17
40372;BME280;28564;53.346;-6.554;2023-02-13T10:35:19;102199.43;;;10.59;45.15
40372;BME280;28564;53.346;-6.554;2023-02-13T10:37:48;102196.70;;;10.72;44.88
40372;BME280;28564;53.346;-6.554;2023-02-13T10:40:18;102197.28;;;10.81;44.75
40372;BME280;28564;53.346;-6.554;2023-02-13T10:42:52;102193.95;;;10.87;44.41
40372;BME280;28564;53.346;-6.554;2023-02-13T10:45:41;102192.38;;;10.52;44.00
40372;BME280;28564;53.346;-6.554;2023-02-13T10:48:22;102191.30;;;11.12;43.97
40372;BME280;28564;53.346;-6.554;2023-02-13T10:51:01;102193.42;;;11.24;43.77
40372;BME280;28564;53.346;-6.554;2023-02-13T10:53:40;102188.85;;;11.34;43.46
40372;BME280;28564;53.346;-6.554;2023-02-13T10:56:17;102188.32;;;10.96;43.59
40372;BME280;28564;53.346;-6.554;2023-02-13T10:58:57;102187.92;;;11.58;43.49
40372;BME280;28564;53.346;-6.554;2023-02-13T11:01:36;102185.06;;;11.26;43.34
40372;BME280;28564;53.346;-6.554;2023-02-13T11:04:09;102183.34;;;11.37;43.08
40372;BME280;28564;53.346;-6.554;2023-02-13T11:06:41;102186.34;;;11.50;42.76
40372;BME280;28564;53.346;-6.554;2023-02-13T11:09:09;102184.06;;;11.92;42.66
40372;BME280;28564;53.346;-6.554;2023-02-13T11:11:37;102177.70;;;11.77;42.45
40372;BME280;28564;53.346;-6.554;2023-02-13T11:14:10;102176.75;;;11.82;42.24
40372;BME280;28564;53.346;-6.554;2023-02-13T11:16:41;102173.24;;;11.88;42.00
40372;BME280;28564;53.346;-6.554;2023-02-13T11:19:17;102167.53;;;11.90;41.79
40372;BME280;28564;53.346;-6.554;2023-02-13T11:21:46;102167.61;;;11.93;41.70
40372;BME280;28564;53.346;-6.554;2023-02-13T11:24:20;102163.68;;;11.96;41.88
40372;BME280;28564;53.346;-6.554;2023-02-13T11:26:52;102163.92;;;12.05;41.95
40372;BME280;28564;53.346;-6.554;2023-02-13T11:29:24;102161.02;;;12.16;41.69
40372;BME280;28564;53.346;-6.554;2023-02-13T11:32:27;102158.40;;;12.24;41.68
40372;BME280;28564;53.346;-6.554;2023-02-13T11:34:55;102157.60;;;12.39;41.35
40372;BME280;28564;53.346;-6.554;2023-02-13T11:37:26;102154.60;;;12.47;41.06
40372;BME280;28564;53.346;-6.554;2023-02-13T11:39:55;102153.07;;;12.52;40.74
40372;BME280;28564;53.346;-6.554;2023-02-13T11:42:28;102148.20;;;12.31;40.82
40372;BME280;28564;53.346;-6.554;2023-02-13T11:44:59;102143.23;;;12.17;40.89
40372;BME280;28564;53.346;-6.554;2023-02-13T11:47:35;102154.22;;;12.67;40.27
40372;BME280;28564;53.346;-6.554;2023-02-13T11:50:05;102144.77;;;12.58;39.99
40372;BME280;28564;53.346;-6.554;2023-02-13T11:52:35;102137.24;;;12.31;39.79
40372;BME280;28564;53.346;-6.554;2023-02-13T11:55:05;102134.05;;;12.20;40.32
40372;BME280;28564;53.346;-6.554;2023-02-13T11:57:56;102129.83;;;12.32;40.38
40372;BME280;28564;53.346;-6.554;2023-02-13T12:00:31;102114.12;;;12.40;40.46
40372;BME280;28564;53.346;-6.554;2023-02-13T12:03:26;102108.03;;;12.61;40.57
40372;BME280;28564;53.346;-6.554;2023-02-13T12:06:04;102106.86;;;12.79;40.30
40372;BME280;28564;53.346;-6.554;2023-02-13T12:08:35;102122.25;;;12.78;40.05
40372;BME280;28564;53.346;-6.554;2023-02-13T12:11:08;102122.21;;;12.96;39.14
40372;BME280;28564;53.346;-6.554;2023-02-13T12:13:41;102111.41;;;12.88;39.26
40372;BME280;28564;53.346;-6.554;2023-02-13T12:16:14;102107.58;;;13.04;39.09
40372;BME280;28564;53.346;-6.554;2023-02-13T12:18:51;102110.17;;;12.99;39.35
40372;BME280;28564;53.346;-6.554;2023-02-13T12:21:28;102109.49;;;13.44;39.37
40372;BME280;28564;53.346;-6.554;2023-02-13T12:24:03;102104.76;;;13.28;39.38
40372;BME280;28564;53.346;-6.554;2023-02-13T12:26:39;102110.82;;;13.58;38.82
40372;BME280;28564;53.346;-6.554;2023-02-13T12:29:22;102112.62;;;13.83;38.02
40372;BME280;28564;53.346;-6.554;2023-02-13T12:32:03;102106.87;;;13.78;37.90
40372;BME280;28564;53.346;-6.554;2023-02-13T12:34:52;102104.09;;;14.19;38.10
40372;BME280;28564;53.346;-6.554;2023-02-13T12:37:37;102104.52;;;14.01;37.83
40372;BME280;28564;53.346;-6.554;2023-02-13T12:40:22;102094.30;;;13.83;38.03
40372;BME280;28564;53.346;-6.554;2023-02-13T12:43:08;102098.42;;;14.09;38.06
40372;BME280;28564;53.346;-6.554;2023-02-13T12:45:42;102093.78;;;14.26;38.15
40372;BME280;28564;53.346;-6.554;2023-02-13T12:48:25;102093.65;;;14.56;38.01
40372;BME280;28564;53.346;-6.554;2023-02-13T12:51:06;102094.13;;;14.62;37.55
40372;BME280;28564;53.346;-6.554;2023-02-13T12:54:06;102091.14;;;15.35;36.97
40372;BME280;28564;53.346;-6.554;2023-02-13T12:56:45;102086.34;;;15.93;36.13
40372;BME280;28564;53.346;-6.554;2023-02-13T12:59:21;102073.57;;;16.78;34.59
40372;BME280;28564;53.346;-6.554;2023-02-13T13:02:06;102077.00;;;16.77;34.04
40372;BME280;28564;53.346;-6.554;2023-02-13T13:04:49;102077.12;;;17.07;33.63
40372;BME280;28564;53.346;-6.554;2023-02-13T13:07:34;102072.82;;;17.60;33.50
40372;BME280;28564;53.346;-6.554;2023-02-13T13:10:31;102072.37;;;18.25;31.97